createdAt,value
2023-04-08T00:00:17.746Z,96332.97
2023-04-08T00:02:46.529Z,96338.31
2023-04-08T00:05:17.419Z,96334.53
2023-04-08T00:07:51.275Z,96338.13
2023-04-08T00:10:19.706Z,96332.84
2023-04-08T00:12:49.108Z,96336.03
2023-04-08T00:15:17.793Z,96335.19
2023-04-08T00:17:46.479Z,96344.38
2023-04-08T00:20:16.402Z,96342.88
2023-04-08T00:22:44.752Z,96340.31
2023-04-08T00:25:15.613Z,96338.91
2023-04-08T00:27:43.980Z,96347.25
2023-04-08T00:30:12.700Z,96346.03
2023-04-08T00:32:47.281Z,96344.88
2023-04-08T00:35:16.725Z,96344.03
2023-04-08T00:37:48.047Z,96343.34
2023-04-08T00:40:21.198Z,96341.31
2023-04-08T00:42:50.034Z,96346.50
2023-04-08T00:45:18.569Z,96354.00
2023-04-08T00:47:52.571Z,96352.94
2023-04-08T00:50:21.425Z,96347.19
2023-04-08T00:52:49.811Z,96358.66
2023-04-08T00:55:21.745Z,96355.50
2023-04-08T00:57:51.905Z,96362.56
2023-04-08T01:00:20.408Z,96361.06
2023-04-08T01:02:58.471Z,96359.25
2023-04-08T01:05:31.847Z,96360.91
2023-04-08T01:08:03.284Z,96353.84
2023-04-08T01:10:41.558Z,96356.63
2023-04-08T01:13:13.355Z,96356.75
2023-04-08T01:15:45.454Z,96350.16
2023-04-08T01:18:17.384Z,96359.72
2023-04-08T01:20:46.744Z,96359.72
2023-04-08T01:23:26.228Z,96357.06
2023-04-08T01:25:56.729Z,96355.25
2023-04-08T01:28:28.239Z,96358.56
2023-04-08T01:30:58.919Z,96361.75
2023-04-08T01:33:29.500Z,96355.63
2023-04-08T01:36:00.077Z,96349.69
2023-04-08T01:38:29.651Z,96349.88
2023-04-08T01:40:59.847Z,96348.34
2023-04-08T01:43:28.842Z,96352.78
2023-04-08T01:45:58.609Z,96344.59
2023-04-08T01:48:28.133Z,96346.91
2023-04-08T01:50:57.956Z,96352.31
2023-04-08T01:53:26.419Z,96356.75
2023-04-08T01:56:02.830Z,96349.69
2023-04-08T01:58:38.178Z,96346.09
2023-04-08T02:01:11.212Z,96346.25
2023-04-08T02:03:39.994Z,96356.75
2023-04-08T02:06:08.463Z,96351.66
2023-04-08T02:08:37.216Z,96347.91
2023-04-08T02:11:07.237Z,96353.59
2023-04-08T02:13:35.904Z,96350.75
2023-04-08T02:16:11.130Z,96350.19
2023-04-08T02:18:47.295Z,96352.00
2023-04-08T02:21:18.827Z,96346.06
2023-04-08T02:23:51.366Z,96356.06
2023-04-08T02:26:23.490Z,96352.59
2023-04-08T02:28:53.811Z,96348.31
2023-04-08T02:31:23.004Z,96351.75
2023-04-08T02:33:53.015Z,96349.13
2023-04-08T02:36:22.190Z,96354.53
2023-04-08T02:38:51.050Z,96360.78
2023-04-08T02:41:21.395Z,96361.91
2023-04-08T02:43:49.723Z,96356.34
2023-04-08T02:46:19.458Z,96357.47
2023-04-08T02:48:48.377Z,96352.06
2023-04-08T02:51:18.881Z,96351.88
2023-04-08T02:53:57.161Z,96354.00
2023-04-08T02:56:27.921Z,96353.47
2023-04-08T02:58:56.354Z,96353.47
2023-04-08T03:01:25.969Z,96355.78
2023-04-08T03:03:54.550Z,96361.72
2023-04-08T03:06:23.102Z,96362.03
2023-04-08T03:08:51.772Z,96354.44
2023-04-08T03:11:21.163Z,96356.78
2023-04-08T03:13:51.174Z,96358.28
2023-04-08T03:16:19.706Z,96355.66
2023-04-08T03:18:48.206Z,96371.88
2023-04-08T03:21:16.896Z,96361.50
2023-04-08T03:23:45.701Z,96370.34
2023-04-08T03:26:14.032Z,96367.03
2023-04-08T03:28:42.452Z,96368.72
2023-04-08T03:31:12.389Z,96369.66
2023-04-08T03:33:40.951Z,96368.16
2023-04-08T03:36:09.968Z,96370.78
2023-04-08T03:38:38.276Z,96366.34
2023-04-08T03:41:06.664Z,96370.66
2023-04-08T03:43:36.814Z,96370.53
2023-04-08T03:46:06.450Z,96361.63
2023-04-08T03:48:36.361Z,96366.06
2023-04-08T03:51:04.908Z,96359.00
2023-04-08T03:53:33.299Z,96371.19
2023-04-08T03:56:02.769Z,96366.63
2023-04-08T03:58:31.966Z,96367.84
2023-04-08T04:01:00.562Z,96375.56
2023-04-08T04:03:29.183Z,96372.78
2023-04-08T04:05:59.069Z,96376.78
2023-04-08T04:08:27.458Z,96370.97
2023-04-08T04:10:55.865Z,96384.34
2023-04-08T04:13:24.404Z,96391.13
2023-04-08T04:15:52.880Z,96384.06
2023-04-08T04:18:21.511Z,96385.84
2023-04-08T04:20:49.827Z,96389.16
2023-04-08T04:23:19.590Z,96391.66
2023-04-08T04:25:48.037Z,96388.06
2023-04-08T04:28:16.348Z,96389.69
2023-04-08T04:30:45.684Z,96397.31
2023-04-08T04:33:14.084Z,96391.06
2023-04-08T04:35:42.522Z,96395.38
2023-04-08T04:38:12.761Z,96400.50
2023-04-08T04:40:42.496Z,96389.69
2023-04-08T04:43:11.252Z,96398.72
2023-04-08T04:45:39.754Z,96391.50
2023-04-08T04:48:08.288Z,96392.19
2023-04-08T04:50:36.630Z,96393.88
2023-04-08T04:53:10.722Z,96401.75
2023-04-08T04:55:39.379Z,96397.19
2023-04-08T04:58:09.101Z,96407.53
2023-04-08T05:00:37.825Z,96401.31
2023-04-08T05:03:06.369Z,96403.66
2023-04-08T05:05:34.780Z,96401.53
2023-04-08T05:08:03.216Z,96402.06
2023-04-08T05:10:31.800Z,96406.25
2023-04-08T05:13:00.708Z,96404.09
2023-04-08T05:15:30.384Z,96404.78
2023-04-08T05:17:58.715Z,96407.28
2023-04-08T05:20:27.121Z,96407.41
2023-04-08T05:22:55.418Z,96405.78
2023-04-08T05:25:23.981Z,96408.41
2023-04-08T05:27:52.783Z,96414.94
2023-04-08T05:30:21.734Z,96420.50
2023-04-08T05:32:51.457Z,96419.69
2023-04-08T05:35:21.552Z,96422.19
2023-04-08T05:37:49.931Z,96417.44
2023-04-08T05:40:20.570Z,96426.16
2023-04-08T05:42:48.933Z,96425.34
2023-04-08T05:45:17.370Z,96424.06
2023-04-08T05:47:45.906Z,96427.25
2023-04-08T05:50:16.037Z,96425.28
2023-04-08T05:52:45.742Z,96429.13
2023-04-08T05:55:15.236Z,96424.22
2023-04-08T05:57:44.362Z,96434.34
2023-04-08T06:00:13.216Z,96440.97
2023-04-08T06:02:41.950Z,96429.97
2023-04-08T06:05:11.035Z,96432.47
2023-04-08T06:07:40.735Z,96430.50
2023-04-08T06:10:10.107Z,96433.00
2023-04-08T06:12:39.672Z,96439.75
2023-04-08T06:15:09.567Z,96439.75
2023-04-08T06:17:38.322Z,96438.94
2023-04-08T06:20:09.412Z,96435.91
2023-04-08T06:22:38.102Z,96442.31
2023-04-08T06:25:08.322Z,96438.69
2023-04-08T06:27:36.716Z,96442.47
2023-04-08T06:30:05.441Z,96444.28
2023-04-08T06:32:34.085Z,96439.28
2023-04-08T06:35:02.568Z,96432.38
2023-04-08T06:37:30.956Z,96439.44
2023-04-08T06:39:59.425Z,96434.34
2023-04-08T06:42:29.221Z,96440.97
2023-04-08T06:44:58.601Z,96444.94
2023-04-08T06:47:27.162Z,96438.41
2023-04-08T06:49:55.635Z,96444.44
2023-04-08T06:52:24.116Z,96444.50
2023-04-08T06:54:52.500Z,96443.91
2023-04-08T06:57:21.750Z,96451.50
2023-04-08T06:59:53.071Z,96446.75
2023-04-08T07:02:22.944Z,96443.66
2023-04-08T07:04:51.621Z,96452.78
2023-04-08T07:07:20.830Z,96446.81
2023-04-08T07:09:49.200Z,96448.66
2023-04-08T07:12:17.587Z,96452.09
2023-04-08T07:14:46.121Z,96454.38
2023-04-08T07:17:16.152Z,96449.41
2023-04-08T07:19:44.854Z,96456.84
2023-04-08T07:22:13.352Z,96455.81
2023-04-08T07:24:42.934Z,96458.88
2023-04-08T07:27:11.518Z,96456.56
2023-04-08T07:29:39.982Z,96463.47
2023-04-08T07:32:08.527Z,96467.09
2023-04-08T07:34:38.716Z,96464.22
2023-04-08T07:37:07.143Z,96472.03
2023-04-08T07:39:35.592Z,96466.91
2023-04-08T07:42:04.099Z,96468.06
2023-04-08T07:44:32.447Z,96474.75
2023-04-08T07:47:00.814Z,96472.78
2023-04-08T07:49:29.217Z,96473.31
2023-04-08T07:51:59.616Z,96475.69
2023-04-08T07:54:28.240Z,96473.03
2023-04-08T07:56:57.087Z,96478.59
2023-04-08T07:59:26.101Z,96479.72
2023-04-08T08:01:54.571Z,96485.69
2023-04-08T08:04:25.970Z,96490.63
2023-04-08T08:06:54.700Z,96496.59
2023-04-08T08:09:24.575Z,96489.88
2023-04-08T08:11:53.016Z,96498.19
2023-04-08T08:14:22.481Z,96498.72
2023-04-08T08:16:50.848Z,96504.28
2023-04-08T08:19:19.193Z,96508.78
2023-04-08T08:21:47.756Z,96518.84
2023-04-08T08:24:16.661Z,96511.97
2023-04-08T08:26:47.354Z,96512.56
2023-04-08T08:29:15.875Z,96512.84
2023-04-08T08:31:44.314Z,96510.91
2023-04-08T08:34:12.755Z,96525.56
2023-04-08T08:36:41.200Z,96524.44
2023-04-08T08:39:09.717Z,96521.38
2023-04-08T08:41:38.226Z,96526.13
2023-04-08T08:44:09.634Z,96520.31
2023-04-08T08:46:38.104Z,96523.94
2023-04-08T08:49:06.528Z,96530.06
2023-04-08T08:51:35.370Z,96530.19
2023-04-08T08:54:04.298Z,96529.38
2023-04-08T08:56:34.612Z,96530.19
2023-04-08T08:59:03.098Z,96537.16
2023-04-08T09:01:34.644Z,96542.81
2023-04-08T09:04:14.444Z,96544.91
2023-04-08T09:06:47.738Z,96547.81
2023-04-08T09:09:16.386Z,96554.72
2023-04-08T09:11:46.652Z,96561.66
2023-04-08T09:14:24.098Z,96562.44
2023-04-08T09:16:54.390Z,96568.78
2023-04-08T09:19:23.309Z,96570.97
2023-04-08T09:22:07.380Z,96564.75
2023-04-08T09:24:37.239Z,96571.66
2023-04-08T09:27:06.159Z,96575.97
2023-04-08T09:29:38.146Z,96584.84
2023-04-08T09:32:09.557Z,96584.84
2023-04-08T09:34:38.059Z,96582.94
2023-04-08T09:37:07.264Z,96587.13
2023-04-08T09:39:36.202Z,96586.28
2023-04-08T09:42:09.269Z,96581.31
2023-04-08T09:44:39.078Z,96584.69
2023-04-08T09:47:13.959Z,96590.09
2023-04-08T09:49:47.759Z,96585.13
2023-04-08T09:52:25.452Z,96590.44
2023-04-08T09:54:56.050Z,96593.50
2023-04-08T09:57:33.592Z,96586.72
2023-04-08T10:00:09.796Z,96588.38
2023-04-08T10:02:47.389Z,96595.34
2023-04-08T10:05:18.461Z,96595.47
2023-04-08T10:07:56.471Z,96596.56
2023-04-08T10:10:25.473Z,96594.47
2023-04-08T10:12:54.321Z,96602.25
2023-04-08T10:15:26.924Z,96593.91
2023-04-08T10:17:58.233Z,96595.34
2023-04-08T10:20:46.006Z,96596.03
2023-04-08T10:23:15.831Z,96590.06
2023-04-08T10:25:45.541Z,96594.06
2023-04-08T10:28:27.377Z,96591.72
2023-04-08T10:30:57.588Z,96592.53
2023-04-08T10:33:34.821Z,96588.38
2023-04-08T10:36:11.389Z,96592.91
2023-04-08T10:38:42.391Z,96589.59
2023-04-08T10:41:12.049Z,96597.03
2023-04-08T10:43:40.449Z,96593.03
2023-04-08T10:46:11.998Z,96597.47
2023-04-08T10:48:41.909Z,96592.91
2023-04-08T10:51:10.297Z,96594.13
2023-04-08T10:53:40.409Z,96596.78
2023-04-08T10:56:11.099Z,96594.84
2023-04-08T10:58:51.800Z,96594.16
2023-04-08T11:01:21.329Z,96595.28
2023-04-08T11:03:52.318Z,96589.59
2023-04-08T11:06:21.190Z,96589.16
2023-04-08T11:08:49.586Z,96598.31
2023-04-08T11:11:18.077Z,96591.00
2023-04-08T11:13:53.408Z,96591.69
2023-04-08T11:16:24.519Z,96608.28
2023-04-08T11:18:55.554Z,96597.34
2023-04-08T11:21:25.711Z,96590.38
2023-04-08T11:23:54.456Z,96594.94
2023-04-08T11:26:24.217Z,96582.03
2023-04-08T11:28:57.547Z,96592.69
2023-04-08T11:31:26.200Z,96591.41
2023-04-08T11:33:56.740Z,96590.28
2023-04-08T11:36:26.146Z,96594.88
2023-04-08T11:38:55.622Z,96583.66
2023-04-08T11:41:26.648Z,96583.41
2023-04-08T11:43:56.751Z,96581.34
2023-04-08T11:46:25.913Z,96585.66
2023-04-08T11:49:03.286Z,96583.03
2023-04-08T11:51:32.259Z,96577.38
2023-04-08T11:54:00.816Z,96584.97
2023-04-08T11:56:30.612Z,96578.75
2023-04-08T11:58:58.949Z,96577.38
2023-04-08T12:01:28.110Z,96581.25
2023-04-08T12:03:58.562Z,96577.53
2023-04-08T12:06:32.450Z,96568.69
2023-04-08T12:09:01.090Z,96570.38
2023-04-08T12:11:29.521Z,96575.31
2023-04-08T12:13:57.888Z,96576.88
2023-04-08T12:16:26.539Z,96575.66
2023-04-08T12:18:55.166Z,96570.94
2023-04-08T12:21:25.687Z,96572.31
2023-04-08T12:23:55.485Z,96580.91
2023-04-08T12:26:27.096Z,96577.41
2023-04-08T12:28:55.560Z,96577.16
2023-04-08T12:31:24.982Z,96573.59
2023-04-08T12:33:53.915Z,96574.41
2023-04-08T12:36:22.406Z,96579.09
2023-04-08T12:38:51.112Z,96578.13
2023-04-08T12:41:21.775Z,96581.47
2023-04-08T12:43:50.321Z,96582.31
2023-04-08T12:46:25.873Z,96585.22
2023-04-08T12:49:03.125Z,96579.00
2023-04-08T12:51:32.516Z,96582.31
2023-04-08T12:54:02.088Z,96577.44
2023-04-08T12:56:32.987Z,96585.34
2023-04-08T12:59:02.083Z,96588.53
2023-04-08T13:01:31.139Z,96595.03
2023-04-08T13:04:00.242Z,96600.88
2023-04-08T13:06:29.036Z,96600.03
2023-04-08T13:09:01.826Z,96600.44
2023-04-08T13:11:34.072Z,96603.63
2023-04-08T13:14:03.489Z,96606.13
2023-04-08T13:16:32.128Z,96608.47
2023-04-08T13:19:00.643Z,96593.66
2023-04-08T13:21:29.121Z,96605.28
2023-04-08T13:23:57.485Z,96601.69
2023-04-08T13:26:26.540Z,96596.00
2023-04-08T13:28:57.636Z,96602.22
2023-04-08T13:31:27.120Z,96604.72
2023-04-08T13:33:58.183Z,96605.69
2023-04-08T13:36:28.900Z,96604.72
2023-04-08T13:38:57.864Z,96608.63
2023-04-08T13:41:28.347Z,96616.09
2023-04-08T13:43:58.496Z,96611.38
2023-04-08T13:46:27.873Z,96606.38
2023-04-08T13:48:56.358Z,96612.06
2023-04-08T13:51:27.357Z,96620.53
2023-04-08T13:53:56.164Z,96618.28
2023-04-08T13:56:24.711Z,96629.78
2023-04-08T13:58:57.604Z,96619.41
2023-04-08T14:01:28.703Z,96619.13
2023-04-08T14:03:57.248Z,96618.72
2023-04-08T14:06:27.425Z,96633.22
2023-04-08T14:08:56.532Z,96624.38
2023-04-08T14:11:26.436Z,96628.78
2023-04-08T14:13:54.960Z,96628.66
2023-04-08T14:16:23.573Z,96632.41
2023-04-08T14:18:53.665Z,96639.06
2023-04-08T14:21:22.226Z,96635.31
2023-04-08T14:23:51.269Z,96639.31
2023-04-08T14:26:20.069Z,96642.38
2023-04-08T14:28:48.876Z,96647.50
2023-04-08T14:31:17.717Z,96640.16
2023-04-08T14:33:46.180Z,96650.13
2023-04-08T14:36:16.081Z,96649.00
2023-04-08T14:38:44.551Z,96648.31
2023-04-08T14:41:16.536Z,96657.31
2023-04-08T14:43:44.964Z,96664.75
2023-04-08T14:46:13.448Z,96657.00
2023-04-08T14:48:42.289Z,96656.59
2023-04-08T14:51:10.971Z,96668.47
2023-04-08T14:53:40.688Z,96672.34
2023-04-08T14:56:10.850Z,96672.19
2023-04-08T14:58:39.288Z,96670.66
2023-04-08T15:01:07.730Z,96674.41
2023-04-08T15:03:36.295Z,96671.22
2023-04-08T15:06:06.361Z,96685.59
2023-04-08T15:08:35.712Z,96682.69
2023-04-08T15:11:05.656Z,96687.41
2023-04-08T15:13:37.571Z,96687.72
2023-04-08T15:16:06.330Z,96694.22
2023-04-08T15:18:34.835Z,96695.88
2023-04-08T15:21:03.353Z,96696.97
2023-04-08T15:23:31.771Z,96701.00
2023-04-08T15:26:00.150Z,96700.19
2023-04-08T15:28:29.922Z,96702.41
2023-04-08T15:30:58.320Z,96705.03
2023-04-08T15:33:28.661Z,96696.88
2023-04-08T15:35:57.550Z,96704.50
2023-04-08T15:38:28.794Z,96709.34
2023-04-08T15:40:57.189Z,96702.81
2023-04-08T15:43:26.932Z,96706.81
2023-04-08T15:45:56.662Z,96705.97
2023-04-08T15:48:25.030Z,96709.56
2023-04-08T15:50:53.598Z,96708.47
2023-04-08T15:53:22.042Z,96705.16
2023-04-08T15:55:50.737Z,96709.56
2023-04-08T15:58:19.116Z,96710.66
2023-04-08T16:00:47.533Z,96713.72
2023-04-08T16:03:17.520Z,96716.16
2023-04-08T16:05:46.365Z,96718.81
2023-04-08T16:08:15.281Z,96716.03
2023-04-08T16:10:44.034Z,96715.22
2023-04-08T16:13:12.711Z,96720.72
2023-04-08T16:15:41.157Z,96717.59
2023-04-08T16:18:09.937Z,96714.97
2023-04-08T16:20:40.195Z,96724.63
2023-04-08T16:23:08.723Z,96726.00
2023-04-08T16:25:40.455Z,96726.69
2023-04-08T16:28:09.295Z,96726.16
2023-04-08T16:30:37.997Z,96722.38
2023-04-08T16:33:07.131Z,96727.88
2023-04-08T16:35:35.627Z,96726.22
2023-04-08T16:38:06.109Z,96722.75
2023-04-08T16:40:34.649Z,96731.22
2023-04-08T16:43:04.199Z,96735.22
2023-04-08T16:45:33.424Z,96730.84
2023-04-08T16:48:02.035Z,96728.91
2023-04-08T16:50:31.228Z,96731.53
2023-04-08T16:52:59.641Z,96732.59
2023-04-08T16:55:34.005Z,96729.94
2023-04-08T16:58:03.034Z,96737.06
2023-04-08T17:00:32.164Z,96737.22
2023-04-08T17:03:00.760Z,96734.84
2023-04-08T17:05:29.261Z,96738.75
2023-04-08T17:07:57.685Z,96736.53
2023-04-08T17:10:26.610Z,96749.19
2023-04-08T17:12:57.841Z,96740.06
2023-04-08T17:15:27.449Z,96748.53
2023-04-08T17:17:56.040Z,96745.91
2023-04-08T17:20:24.911Z,96743.13
2023-04-08T17:22:53.310Z,96749.22
2023-04-08T17:25:21.766Z,96751.16
2023-04-08T17:28:01.534Z,96754.84
2023-04-08T17:30:30.737Z,96752.38
2023-04-08T17:32:59.120Z,96750.59
2023-04-08T17:35:28.510Z,96758.47
2023-04-08T17:37:57.036Z,96760.41
2023-04-08T17:40:26.497Z,96768.00
2023-04-08T17:42:54.934Z,96767.16
2023-04-08T17:45:24.912Z,96770.78
2023-04-08T17:47:54.985Z,96772.44
2023-04-08T17:50:23.399Z,96771.59
2023-04-08T17:52:51.889Z,96780.06
2023-04-08T17:55:20.457Z,96778.84
2023-04-08T17:57:49.801Z,96778.72
2023-04-08T18:00:18.305Z,96784.78
2023-04-08T18:02:50.357Z,96786.44
2023-04-08T18:05:19.079Z,96788.13
2023-04-08T18:07:54.049Z,96788.81
2023-04-08T18:10:23.100Z,96786.88
2023-04-08T18:13:03.728Z,96789.38
2023-04-08T18:15:37.557Z,96793.09
2023-04-08T18:18:07.432Z,96796.94
2023-04-08T18:20:36.707Z,96799.72
2023-04-08T18:23:05.524Z,96807.63
2023-04-08T18:25:34.473Z,96806.88
2023-04-08T18:28:05.724Z,96814.06
2023-04-08T18:30:35.716Z,96805.47
2023-04-08T18:33:04.235Z,96813.66
2023-04-08T18:35:34.061Z,96811.84
2023-04-08T18:38:02.466Z,96816.28
2023-04-08T18:40:31.493Z,96825.69
2023-04-08T18:43:06.174Z,96824.03
2023-04-08T18:45:34.550Z,96831.06
2023-04-08T18:48:02.949Z,96833.69
2023-04-08T18:50:31.403Z,96837.41
2023-04-08T18:53:01.253Z,96834.59
2023-04-08T18:55:35.904Z,96834.84
2023-04-08T18:58:04.766Z,96847.41
2023-04-08T19:00:33.174Z,96848.38
2023-04-08T19:03:03.393Z,96850.75
2023-04-08T19:05:32.944Z,96849.78
2023-04-08T19:08:02.877Z,96849.50
2023-04-08T19:10:31.616Z,96852.28
2023-04-08T19:13:00.506Z,96853.25
2023-04-08T19:15:30.077Z,96855.44
2023-04-08T19:17:59.014Z,96852.66
2023-04-08T19:20:28.661Z,96859.00
2023-04-08T19:22:57.335Z,96864.66
2023-04-08T19:25:27.201Z,96862.03
2023-04-08T19:27:55.771Z,96861.19
2023-04-08T19:30:24.209Z,96860.34
2023-04-08T19:32:52.662Z,96859.84
2023-04-08T19:35:21.083Z,96862.22
2023-04-08T19:37:49.549Z,96863.16
2023-04-08T19:40:18.650Z,96868.75
2023-04-08T19:42:48.498Z,96866.56
2023-04-08T19:45:17.518Z,96866.31
2023-04-08T19:47:47.011Z,96867.28
2023-04-08T19:50:15.555Z,96868.25
2023-04-08T19:52:44.152Z,96871.00
2023-04-08T19:55:12.710Z,96871.97
2023-04-08T19:57:41.107Z,96879.84
2023-04-08T20:00:14.254Z,96874.00
2023-04-08T20:02:43.027Z,96872.84
2023-04-08T20:05:14.959Z,96868.69
2023-04-08T20:07:43.384Z,96878.22
2023-04-08T20:10:13.299Z,96865.94
2023-04-08T20:12:42.492Z,96879.50
2023-04-08T20:15:23.654Z,96869.59
2023-04-08T20:17:53.988Z,96873.91
2023-04-08T20:20:22.813Z,96869.34
2023-04-08T20:22:51.326Z,96874.31
2023-04-08T20:25:19.941Z,96881.13
2023-04-08T20:27:48.317Z,96871.44
2023-04-08T20:30:18.452Z,96881.25
2023-04-08T20:32:47.245Z,96879.84
2023-04-08T20:35:15.782Z,96879.69
2023-04-08T20:37:44.108Z,96889.25
2023-04-08T20:40:12.932Z,96881.50
2023-04-08T20:42:41.303Z,96881.25
2023-04-08T20:45:11.608Z,96884.84
2023-04-08T20:47:41.800Z,96882.31
2023-04-08T20:50:11.371Z,96878.16
2023-04-08T20:52:39.775Z,96884.66
2023-04-08T20:55:09.188Z,96888.69
2023-04-08T20:57:37.652Z,96893.13
2023-04-08T21:00:07.638Z,96883.81
2023-04-08T21:02:36.565Z,96883.94
2023-04-08T21:05:06.915Z,96894.69
2023-04-08T21:07:35.733Z,96889.72
2023-04-08T21:10:04.330Z,96883.47
2023-04-08T21:12:32.688Z,96887.50
2023-04-08T21:15:01.037Z,96881.31
2023-04-08T21:17:31.936Z,96887.41
2023-04-08T21:20:00.336Z,96886.44
2023-04-08T21:22:31.237Z,96885.59
2023-04-08T21:24:59.613Z,96890.16
2023-04-08T21:27:32.626Z,96877.72
2023-04-08T21:30:01.186Z,96887.16
2023-04-08T21:32:30.617Z,96884.25
2023-04-08T21:34:59.274Z,96887.03
2023-04-08T21:37:27.847Z,96894.19
2023-04-08T21:39:57.589Z,96890.72
2023-04-08T21:42:27.536Z,96891.69
2023-04-08T21:44:56.648Z,96889.91
2023-04-08T21:47:25.181Z,96888.22
2023-04-08T21:49:53.739Z,96891.81
2023-04-08T21:52:22.678Z,96888.94
2023-04-08T21:54:51.705Z,96896.44
2023-04-08T21:57:21.637Z,96890.91
2023-04-08T21:59:50.028Z,96889.16
2023-04-08T22:02:18.595Z,96893.94
2023-04-08T22:04:54.816Z,96893.03
2023-04-08T22:07:23.243Z,96903.09
2023-04-08T22:09:51.882Z,96903.34
2023-04-08T22:12:21.690Z,96890.22
2023-04-08T22:14:50.275Z,96891.63
2023-04-08T22:17:18.986Z,96898.53
2023-04-08T22:19:47.398Z,96892.69
2023-04-08T22:22:15.857Z,96891.16
2023-04-08T22:24:44.203Z,96891.66
2023-04-08T22:27:12.655Z,96891.53
2023-04-08T22:29:42.426Z,96892.75
2023-04-08T22:32:10.900Z,96894.28
2023-04-08T22:34:39.288Z,96890.94
2023-04-08T22:37:07.814Z,96894.78
2023-04-08T22:39:36.619Z,96890.84
2023-04-08T22:42:05.075Z,96894.69
2023-04-08T22:44:33.421Z,96893.84
2023-04-08T22:47:03.245Z,96898.28
2023-04-08T22:49:33.171Z,96894.44
2023-04-08T22:52:01.565Z,96898.22
2023-04-08T22:54:29.952Z,96902.97
2023-04-08T22:56:58.449Z,96900.00
2023-04-08T22:59:26.812Z,96900.47
2023-04-08T23:01:55.603Z,96897.94
2023-04-08T23:04:25.711Z,96906.41
2023-04-08T23:06:54.320Z,96901.44
2023-04-08T23:09:24.548Z,96907.88
2023-04-08T23:11:52.946Z,96908.94
2023-04-08T23:14:21.364Z,96907.53
2023-04-08T23:16:49.861Z,96909.56
2023-04-08T23:19:18.300Z,96902.78
2023-04-08T23:21:48.112Z,96904.59
2023-04-08T23:24:16.517Z,96905.41
2023-04-08T23:26:46.134Z,96908.03
2023-04-08T23:29:14.757Z,96899.56
2023-04-08T23:31:43.734Z,96910.06
2023-04-08T23:34:12.187Z,96906.75
2023-04-08T23:36:40.637Z,96905.19
2023-04-08T23:39:10.465Z,96910.31
2023-04-08T23:41:38.950Z,96910.06
2023-04-08T23:44:07.308Z,96909.25
2023-04-08T23:46:36.263Z,96909.38
2023-04-08T23:49:04.796Z,96909.25
2023-04-08T23:51:34.217Z,96904.69
2023-04-08T23:54:02.510Z,96902.91
2023-04-08T23:56:33.814Z,96903.59
2023-04-08T23:59:02.213Z,96902.50
